Time;durP1;ratioP1;P1;durP2;ratioP2;P2;SDS_P1;SDS_P2;PMS_P1;PMS_P2;Temp;Humidity;BMP_temperature;BMP_pressure;BME280_temperature;BME280_humidity;BME280_pressure;Samples;Min_cycle;Max_cycle;Signal;HPM_P1;HPM_P2
2021/05/15 00:01:23;;;;;;;5.28;2.97;;;;;;;;;;5034943;28;20260;-62
2021/05/15 00:03:48;;;;;;;4.20;2.65;;;;;;;;;;5037706;28;20025;-64
2021/05/15 00:06:13;;;;;;;5.07;2.58;;;;;;;;;;5045794;28;20519;-64
2021/05/15 00:08:38;;;;;;;4.73;2.40;;;;;;;;;;5033533;28;20037;-64
2021/05/15 00:11:06;;;;;;;4.68;2.95;;;;;;;;;;5045183;28;20335;-64
2021/05/15 00:13:31;;;;;;;5.22;2.25;;;;;;;;;;5040002;28;20478;-64
2021/05/15 00:15:56;;;;;;;7.33;2.10;;;;;;;;;;5047935;28;20037;-64
2021/05/15 00:18:21;;;;;;;4.00;2.60;;;;;;;;;;5049155;28;20264;-64
2021/05/15 00:20:46;;;;;;;3.20;2.10;;;;;;;;;;5033912;28;20482;-64
2021/05/15 00:23:12;;;;;;;7.85;2.58;;;;;;;;;;5045975;28;20362;-64
2021/05/15 00:25:37;;;;;;;4.35;2.08;;;;;;;;;;5046086;28;20029;-64
2021/05/15 00:28:02;;;;;;;6.05;2.38;;;;;;;;;;5045117;28;20022;-63
2021/05/15 00:30:27;;;;;;;5.85;2.40;;;;;;;;;;5032806;28;20390;-61
2021/05/15 00:32:52;;;;;;;4.10;1.97;;;;;;;;;;5034225;28;20060;-62
2021/05/15 00:35:18;;;;;;;3.35;2.10;;;;;;;;;;5035757;28;20259;-61
2021/05/15 00:37:44;;;;;;;3.38;2.20;;;;;;;;;;5039098;28;20033;-61
2021/05/15 00:40:09;;;;;;;5.93;2.10;;;;;;;;;;5034506;28;20025;-62
2021/05/15 00:42:35;;;;;;;3.10;1.70;;;;;;;;;;5047302;28;20022;-64
2021/05/15 00:45:01;;;;;;;4.30;1.90;;;;;;;;;;5039591;28;20552;-64
2021/05/15 00:47:26;;;;;;;4.32;1.90;;;;;;;;;;5035691;28;20037;-62
2021/05/15 00:49:52;;;;;;;4.75;1.33;;;;;;;;;;5032763;28;20025;-62
2021/05/15 00:52:18;;;;;;;4.00;1.75;;;;;;;;;;5044760;28;20025;-64
2021/05/15 00:54:43;;;;;;;3.75;1.95;;;;;;;;;;5051073;28;20568;-63
2021/05/15 00:57:09;;;;;;;2.40;1.67;;;;;;;;;;5051640;28;20112;-63
2021/05/15 00:59:35;;;;;;;5.88;1.65;;;;;;;;;;5037955;28;20409;-63
2021/05/15 01:02:00;;;;;;;3.58;1.60;;;;;;;;;;5032248;28;20018;-65
2021/05/15 01:04:26;;;;;;;1.67;1.30;;;;;;;;;;5038881;28;20102;-63
2021/05/15 01:06:51;;;;;;;3.60;1.95;;;;;;;;;;5043159;28;20021;-63
2021/05/15 01:09:17;;;;;;;3.17;1.65;;;;;;;;;;5043279;28;20027;-62
2021/05/15 01:11:42;;;;;;;4.35;1.58;;;;;;;;;;5037858;28;20105;-63
2021/05/15 01:14:07;;;;;;;3.75;1.65;;;;;;;;;;5038626;28;20493;-62
2021/05/15 01:16:32;;;;;;;4.45;1.70;;;;;;;;;;5032072;28;20517;-63
2021/05/15 01:19:00;;;;;;;5.05;1.83;;;;;;;;;;5031439;28;20029;-62
2021/05/15 01:21:25;;;;;;;4.78;1.55;;;;;;;;;;5033832;28;20080;-61
2021/05/15 01:23:51;;;;;;;3.72;1.45;;;;;;;;;;5042100;28;20025;-63
2021/05/15 01:26:17;;;;;;;10.48;1.95;;;;;;;;;;5030633;28;20123;-64
2021/05/15 01:28:45;;;;;;;3.17;1.27;;;;;;;;;;5037034;28;20382;-63
2021/05/15 01:31:10;;;;;;;6.60;2.17;;;;;;;;;;5051267;28;20529;-62
2021/05/15 01:33:35;;;;;;;2.00;1.38;;;;;;;;;;5034984;28;20014;-62
2021/05/15 01:36:01;;;;;;;4.28;1.67;;;;;;;;;;5034593;28;20044;-63
2021/05/15 01:38:26;;;;;;;1.83;1.17;;;;;;;;;;5033764;28;20036;-62
2021/05/15 01:40:51;;;;;;;2.60;1.42;;;;;;;;;;5047483;28;20017;-62
2021/05/15 01:43:17;;;;;;;4.03;1.80;;;;;;;;;;5050759;28;20465;-63
2021/05/15 01:45:42;;;;;;;9.10;1.90;;;;;;;;;;5050930;28;20096;-63
2021/05/15 01:48:13;;;;;;;4.20;2.03;;;;;;;;;;5036826;28;20017;-63
2021/05/15 01:50:38;;;;;;;6.70;2.72;;;;;;;;;;5031286;28;20273;-63
2021/05/15 01:53:04;;;;;;;3.60;1.33;;;;;;;;;;5031788;28;20073;-63
2021/05/15 01:55:29;;;;;;;4.00;1.67;;;;;;;;;;5031932;28;20025;-63
2021/05/15 01:57:54;;;;;;;2.60;1.70;;;;;;;;;;5013787;28;20827;-62
2021/05/15 02:00:20;;;;;;;6.97;1.85;;;;;;;;;;5034953;28;20284;-64
2021/05/15 02:02:45;;;;;;;6.13;1.73;;;;;;;;;;5043460;28;20377;-63
2021/05/15 02:05:10;;;;;;;2.20;0.80;;;;;;;;;;5040915;28;20089;-63
2021/05/15 02:07:35;;;;;;;3.60;1.60;;;;;;;;;;5051137;28;20263;-62
2021/05/15 02:10:01;;;;;;;5.70;2.40;;;;;;;;;;5033883;28;20245;-63
2021/05/15 02:12:26;;;;;;;3.78;1.55;;;;;;;;;;5035785;28;20096;-63
2021/05/15 02:14:52;;;;;;;3.72;2.00;;;;;;;;;;5041320;28;20419;-64
2021/05/15 02:17:17;;;;;;;3.58;1.50;;;;;;;;;;5039308;28;20090;-63
2021/05/15 02:19:42;;;;;;;6.97;2.00;;;;;;;;;;5038483;28;20036;-63
2021/05/15 02:22:07;;;;;;;3.08;1.55;;;;;;;;;;5043794;28;20593;-62
2021/05/15 02:24:32;;;;;;;9.93;1.80;;;;;;;;;;5030887;28;20104;-63
2021/05/15 02:26:58;;;;;;;2.95;1.48;;;;;;;;;;5049006;28;20092;-63
2021/05/15 02:29:23;;;;;;;3.53;1.65;;;;;;;;;;5048670;28;20079;-62
2021/05/15 02:31:48;;;;;;;1.83;1.17;;;;;;;;;;5031858;28;20489;-63
2021/05/15 02:34:13;;;;;;;2.40;1.42;;;;;;;;;;5038816;28;20048;-62
2021/05/15 02:36:38;;;;;;;4.93;1.57;;;;;;;;;;5034388;28;20104;-65
2021/05/15 02:39:04;;;;;;;4.40;1.60;;;;;;;;;;5039076;28;20286;-62
2021/05/15 02:41:29;;;;;;;3.92;1.35;;;;;;;;;;5041014;28;20402;-63
2021/05/15 02:43:54;;;;;;;3.10;1.70;;;;;;;;;;5032372;28;20046;-62
2021/05/15 02:46:19;;;;;;;3.30;1.70;;;;;;;;;;5036539;28;20087;-63
2021/05/15 02:48:45;;;;;;;12.47;2.00;;;;;;;;;;5020831;28;20470;-63
2021/05/15 02:51:10;;;;;;;6.43;2.28;;;;;;;;;;5043242;28;20317;-63
2021/05/15 02:53:35;;;;;;;2.00;1.08;;;;;;;;;;5030737;28;20013;-62
2021/05/15 02:56:00;;;;;;;4.10;1.00;;;;;;;;;;5013213;28;20679;-63
2021/05/15 02:58:25;;;;;;;4.90;1.63;;;;;;;;;;5035722;28;20256;-63
2021/05/15 03:00:51;;;;;;;2.42;1.73;;;;;;;;;;5040734;28;20158;-63
2021/05/15 03:03:16;;;;;;;8.32;1.88;;;;;;;;;;5042985;28;20024;-67
2021/05/15 03:05:41;;;;;;;5.68;1.80;;;;;;;;;;5045898;28;20621;-64
2021/05/15 03:08:07;;;;;;;7.60;2.30;;;;;;;;;;5032567;28;20552;-64
2021/05/15 03:10:32;;;;;;;3.92;1.98;;;;;;;;;;5038342;23;20041;-62
2021/05/15 03:12:57;;;;;;;2.55;1.52;;;;;;;;;;5029443;28;20025;-62
2021/05/15 03:15:23;;;;;;;4.53;1.80;;;;;;;;;;5030256;28;20018;-62
2021/05/15 03:17:49;;;;;;;5.22;2.10;;;;;;;;;;5029621;28;20017;-62
2021/05/15 03:20:16;;;;;;;3.10;1.67;;;;;;;;;;5029940;28;20509;-62
2021/05/15 03:22:41;;;;;;;1.90;1.13;;;;;;;;;;5029513;28;20056;-62
2021/05/15 03:25:06;;;;;;;9.38;2.08;;;;;;;;;;5029957;28;20067;-62
2021/05/15 03:27:32;;;;;;;2.47;1.70;;;;;;;;;;5029641;28;20030;-62
2021/05/15 03:29:57;;;;;;;3.33;1.85;;;;;;;;;;5029416;28;20025;-63
2021/05/15 03:32:23;;;;;;;2.20;1.30;;;;;;;;;;5029710;28;20018;-63
2021/05/15 03:34:48;;;;;;;1.17;0.82;;;;;;;;;;5029682;28;20060;-63
2021/05/15 03:37:13;;;;;;;6.70;1.90;;;;;;;;;;5029138;28;20393;-62
2021/05/15 03:39:38;;;;;;;3.28;2.05;;;;;;;;;;5029791;28;20276;-62
2021/05/15 03:42:04;;;;;;;3.13;1.83;;;;;;;;;;5030648;28;20119;-63
2021/05/15 03:44:29;;;;;;;3.95;1.83;;;;;;;;;;5033552;28;20025;-63
2021/05/15 03:46:54;;;;;;;4.60;1.90;;;;;;;;;;5032755;28;20020;-63
2021/05/15 03:49:19;;;;;;;6.13;2.10;;;;;;;;;;5033581;28;20025;-63
2021/05/15 03:51:45;;;;;;;2.10;1.52;;;;;;;;;;5033078;28;20512;-63
2021/05/15 03:54:10;;;;;;;6.50;3.08;;;;;;;;;;5033040;28;20033;-63
2021/05/15 03:56:35;;;;;;;3.50;1.63;;;;;;;;;;5033180;28;20420;-63
2021/05/15 03:59:00;;;;;;;4.18;2.25;;;;;;;;;;5032755;28;20045;-62
2021/05/15 04:01:25;;;;;;;2.70;1.47;;;;;;;;;;5033066;28;20104;-63
2021/05/15 04:03:51;;;;;;;4.43;2.03;;;;;;;;;;5033005;28;20819;-63
2021/05/15 04:06:16;;;;;;;4.53;1.85;;;;;;;;;;5032950;28;20145;-63
2021/05/15 04:08:41;;;;;;;8.35;2.97;;;;;;;;;;5033140;28;20654;-63
2021/05/15 04:11:08;;;;;;;3.83;1.92;;;;;;;;;;5032992;28;20113;-63
2021/05/15 04:13:43;;;;;;;4.20;2.05;;;;;;;;;;5032765;28;20028;-62
2021/05/15 04:16:24;;;;;;;9.10;2.20;;;;;;;;;;5014310;28;20026;-63
2021/05/15 04:18:50;;;;;;;3.67;2.20;;;;;;;;;;5032612;28;20028;-63
2021/05/15 04:21:15;;;;;;;9.25;3.75;;;;;;;;;;5032548;28;20013;-63
2021/05/15 04:23:40;;;;;;;4.35;2.38;;;;;;;;;;5031904;28;20032;-62
2021/05/15 04:26:05;;;;;;;5.45;1.58;;;;;;;;;;5032708;28;20363;-62
2021/05/15 04:28:31;;;;;;;6.70;2.05;;;;;;;;;;5032557;28;20026;-62
2021/05/15 04:30:57;;;;;;;3.08;1.70;;;;;;;;;;5032539;28;20433;-62
2021/05/15 04:33:25;;;;;;;2.75;1.33;;;;;;;;;;5032181;28;20040;-63
2021/05/15 04:35:51;;;;;;;4.50;1.75;;;;;;;;;;5032646;28;20025;-62
2021/05/15 04:38:17;;;;;;;4.65;2.70;;;;;;;;;;5032423;28;20013;-62
2021/05/15 04:40:42;;;;;;;6.00;2.17;;;;;;;;;;5032554;28;20025;-62
2021/05/15 04:43:07;;;;;;;4.90;2.63;;;;;;;;;;5032311;28;20488;-62
2021/05/15 04:45:33;;;;;;;2.72;2.40;;;;;;;;;;5032628;28;20104;-62
2021/05/15 04:47:58;;;;;;;1.83;1.48;;;;;;;;;;5031517;28;20028;-62
2021/05/15 04:50:24;;;;;;;5.15;2.33;;;;;;;;;;5032085;28;20021;-62
2021/05/15 04:52:50;;;;;;;4.80;2.90;;;;;;;;;;5032504;28;20025;-62
2021/05/15 04:55:16;;;;;;;4.45;2.70;;;;;;;;;;5032189;28;20096;-62
2021/05/15 04:57:41;;;;;;;2.88;1.70;;;;;;;;;;5031886;28;20668;-62
2021/05/15 05:00:06;;;;;;;2.30;1.77;;;;;;;;;;5031489;28;20034;-62
2021/05/15 05:02:32;;;;;;;6.78;3.17;;;;;;;;;;5031597;28;20021;-62
2021/05/15 05:04:57;;;;;;;5.55;2.40;;;;;;;;;;5032495;28;20468;-62
2021/05/15 05:07:22;;;;;;;6.50;2.63;;;;;;;;;;5031668;28;20056;-62
2021/05/15 05:09:47;;;;;;;4.68;2.92;;;;;;;;;;5031917;28;20040;-62
2021/05/15 05:12:12;;;;;;;4.90;2.97;;;;;;;;;;5031545;28;20025;-63
2021/05/15 05:14:38;;;;;;;5.18;2.75;;;;;;;;;;5031726;28;20272;-62
2021/05/15 05:17:04;;;;;;;5.68;2.65;;;;;;;;;;5031245;28;20389;-63
2021/05/15 05:19:29;;;;;;;8.23;2.05;;;;;;;;;;5031528;28;20030;-62
2021/05/15 05:21:55;;;;;;;3.75;2.22;;;;;;;;;;5031888;28;20432;-62
2021/05/15 05:24:21;;;;;;;3.45;2.45;;;;;;;;;;5031626;28;20021;-63
2021/05/15 05:26:46;;;;;;;4.72;2.97;;;;;;;;;;5031672;28;20028;-62
2021/05/15 05:29:11;;;;;;;3.95;1.52;;;;;;;;;;5031233;28;20025;-62
2021/05/15 05:31:37;;;;;;;6.87;2.80;;;;;;;;;;5031302;28;20021;-62
2021/05/15 05:34:03;;;;;;;1.67;1.55;;;;;;;;;;5031267;28;20270;-63
2021/05/15 05:36:28;;;;;;;7.35;2.88;;;;;;;;;;5031170;28;20400;-63
2021/05/15 05:38:53;;;;;;;9.80;2.43;;;;;;;;;;5031161;28;20119;-63
2021/05/15 05:41:20;;;;;;;3.13;1.80;;;;;;;;;;5026528;28;20863;-62
2021/05/15 05:43:45;;;;;;;6.38;1.48;;;;;;;;;;5030590;28;20359;-62
2021/05/15 05:46:10;;;;;;;3.53;2.33;;;;;;;;;;5031160;28;20105;-62
2021/05/15 05:48:36;;;;;;;0.97;0.80;;;;;;;;;;5031223;28;20056;-62
2021/05/15 05:51:01;;;;;;;3.70;1.80;;;;;;;;;;5030328;28;20283;-62
2021/05/15 05:53:26;;;;;;;5.80;2.50;;;;;;;;;;5030600;28;20268;-63
2021/05/15 05:55:51;;;;;;;5.47;2.53;;;;;;;;;;5030717;28;20632;-62
2021/05/15 05:58:16;;;;;;;4.90;2.50;;;;;;;;;;5029601;28;20381;-62
2021/05/15 06:00:41;;;;;;;3.60;2.40;;;;;;;;;;5030356;28;20317;-62
2021/05/15 06:03:07;;;;;;;4.13;2.57;;;;;;;;;;5026475;28;20284;-63
2021/05/15 06:05:32;;;;;;;7.88;3.03;;;;;;;;;;5030557;28;20315;-63
2021/05/15 06:08:04;;;;;;;5.53;3.05;;;;;;;;;;5030356;28;20022;-62
2021/05/15 06:10:29;;;;;;;4.13;2.20;;;;;;;;;;5035479;28;20029;-62
2021/05/15 06:12:55;;;;;;;1.57;1.27;;;;;;;;;;5032716;28;20036;-62
2021/05/15 06:15:20;;;;;;;3.27;2.17;;;;;;;;;;5024340;28;20739;-63
2021/05/15 06:17:45;;;;;;;4.57;2.30;;;;;;;;;;5037367;28;20267;-63
2021/05/15 06:20:11;;;;;;;6.17;2.57;;;;;;;;;;5014521;28;20029;-62
2021/05/15 06:22:36;;;;;;;7.63;1.98;;;;;;;;;;5031054;28;20256;-63
2021/05/15 06:25:01;;;;;;;5.50;2.23;;;;;;;;;;5030567;28;20025;-62
2021/05/15 06:27:27;;;;;;;3.95;2.70;;;;;;;;;;5030511;28;20263;-62
2021/05/15 06:29:54;;;;;;;2.55;2.00;;;;;;;;;;5029637;28;20021;-63
2021/05/15 06:32:19;;;;;;;5.45;3.10;;;;;;;;;;5031236;28;20025;-62
2021/05/15 06:34:44;;;;;;;5.03;2.87;;;;;;;;;;5036032;28;20032;-63
2021/05/15 06:37:09;;;;;;;3.37;2.23;;;;;;;;;;5029717;28;20320;-62
2021/05/15 06:39:34;;;;;;;4.97;2.70;;;;;;;;;;5030061;28;20280;-62
2021/05/15 06:41:59;;;;;;;4.60;2.60;;;;;;;;;;5029609;28;20356;-63
2021/05/15 06:44:25;;;;;;;12.50;2.60;;;;;;;;;;5028407;28;20279;-64
2021/05/15 06:46:50;;;;;;;3.75;2.65;;;;;;;;;;5035243;28;20266;-64
2021/05/15 06:49:15;;;;;;;8.18;3.53;;;;;;;;;;5029067;28;20410;-64
2021/05/15 06:51:40;;;;;;;3.47;2.60;;;;;;;;;;5038922;28;20440;-64
2021/05/15 06:54:06;;;;;;;6.18;3.08;;;;;;;;;;5038912;28;20052;-64
2021/05/15 06:56:32;;;;;;;2.90;2.10;;;;;;;;;;5029883;28;20044;-64
2021/05/15 06:58:57;;;;;;;4.95;3.05;;;;;;;;;;5030131;28;20112;-64
2021/05/15 07:01:22;;;;;;;5.23;3.57;;;;;;;;;;5030000;28;20013;-64
2021/05/15 07:03:47;;;;;;;5.43;2.63;;;;;;;;;;5036797;28;20272;-64
2021/05/15 07:06:13;;;;;;;5.27;2.77;;;;;;;;;;5031419;28;20021;-64
2021/05/15 07:08:38;;;;;;;3.72;2.72;;;;;;;;;;5038180;28;20805;-64
2021/05/15 07:11:03;;;;;;;6.97;3.40;;;;;;;;;;5024321;28;20075;-64
2021/05/15 07:13:28;;;;;;;2.33;1.58;;;;;;;;;;5024465;28;20327;-64
2021/05/15 07:15:53;;;;;;;5.18;2.13;;;;;;;;;;5020349;28;20029;-64
2021/05/15 07:18:19;;;;;;;4.70;2.67;;;;;;;;;;5029627;28;20025;-64
2021/05/15 07:20:45;;;;;;;3.85;2.63;;;;;;;;;;5031691;28;20113;-64
2021/05/15 07:23:10;;;;;;;3.38;2.38;;;;;;;;;;5031155;28;20025;-64
2021/05/15 07:25:35;;;;;;;2.20;1.40;;;;;;;;;;5032013;28;20474;-64
2021/05/15 07:28:00;;;;;;;5.85;2.97;;;;;;;;;;5028714;28;20524;-64
2021/05/15 07:30:25;;;;;;;4.93;3.17;;;;;;;;;;5028446;28;20428;-64
2021/05/15 07:32:51;;;;;;;4.30;2.80;;;;;;;;;;5030632;28;20280;-64
2021/05/15 07:35:16;;;;;;;5.90;2.50;;;;;;;;;;5030956;28;20740;-64
2021/05/15 07:37:41;;;;;;;6.27;2.97;;;;;;;;;;5029566;28;20337;-64
2021/05/15 07:40:06;;;;;;;9.45;2.70;;;;;;;;;;5027997;28;20659;-65
2021/05/15 07:42:32;;;;;;;3.88;2.05;;;;;;;;;;5028232;28;20025;-64
2021/05/15 07:44:57;;;;;;;3.60;1.77;;;;;;;;;;5029074;28;20079;-64
2021/05/15 07:47:22;;;;;;;5.70;2.95;;;;;;;;;;5029357;28;20482;-64
2021/05/15 07:49:47;;;;;;;3.13;1.80;;;;;;;;;;5029043;28;20394;-64
2021/05/15 07:52:12;;;;;;;3.73;2.63;;;;;;;;;;5030790;28;20144;-64
2021/05/15 07:54:39;;;;;;;4.32;2.58;;;;;;;;;;5025922;28;20288;-64
2021/05/15 07:57:04;;;;;;;5.65;2.55;;;;;;;;;;5027417;28;20037;-62
2021/05/15 07:59:29;;;;;;;2.95;1.95;;;;;;;;;;5031224;28;20445;-62
2021/05/15 08:01:55;;;;;;;6.47;2.60;;;;;;;;;;5027761;28;20025;-62
2021/05/15 08:04:20;;;;;;;7.43;2.77;;;;;;;;;;5024490;28;20264;-61
2021/05/15 08:06:47;;;;;;;1.97;1.30;;;;;;;;;;5031728;28;20331;-63
2021/05/15 08:09:12;;;;;;;4.30;3.15;;;;;;;;;;5030265;28;20268;-64
2021/05/15 08:11:38;;;;;;;5.60;1.77;;;;;;;;;;5026762;28;20040;-62
2021/05/15 08:14:04;;;;;;;3.53;2.05;;;;;;;;;;5029768;28;20505;-64
2021/05/15 08:16:30;;;;;;;5.05;2.72;;;;;;;;;;5031235;28;20402;-62
2021/05/15 08:18:57;;;;;;;5.30;3.28;;;;;;;;;;5030920;28;20025;-62
2021/05/15 08:21:22;;;;;;;3.50;1.92;;;;;;;;;;5032153;28;20025;-62
2021/05/15 08:23:47;;;;;;;4.35;3.20;;;;;;;;;;5026650;28;20386;-63
2021/05/15 08:26:12;;;;;;;6.97;3.37;;;;;;;;;;5031446;28;20075;-63
2021/05/15 08:28:46;;;;;;;7.47;3.70;;;;;;;;;;5030634;28;20748;-62
2021/05/15 08:31:11;;;;;;;5.70;3.17;;;;;;;;;;5030261;28;20030;-65
2021/05/15 08:33:37;;;;;;;4.90;3.22;;;;;;;;;;5027373;28;20109;-63
2021/05/15 08:36:03;;;;;;;7.40;3.65;;;;;;;;;;5029184;28;20104;-63
2021/05/15 08:38:28;;;;;;;3.97;3.10;;;;;;;;;;5027619;28;20100;-63
2021/05/15 08:40:53;;;;;;;5.30;3.30;;;;;;;;;;5030071;28;20068;-64
2021/05/15 08:43:18;;;;;;;4.30;2.80;;;;;;;;;;5029855;28;20296;-63
2021/05/15 08:45:45;;;;;;;6.50;2.85;;;;;;;;;;5008504;28;20288;-64
2021/05/15 08:48:11;;;;;;;5.13;2.92;;;;;;;;;;5030893;28;20017;-65
2021/05/15 08:50:37;;;;;;;5.90;1.90;;;;;;;;;;5028715;28;20157;-65
2021/05/15 08:53:02;;;;;;;6.95;3.47;;;;;;;;;;5031006;28;20033;-65
2021/05/15 08:55:29;;;;;;;5.67;3.50;;;;;;;;;;5031318;28;20025;-65
2021/05/15 08:57:55;;;;;;;4.15;2.72;;;;;;;;;;5031091;28;20348;-64
2021/05/15 09:00:34;;;;;;;5.18;2.88;;;;;;;;;;5032109;28;20159;-65
2021/05/15 09:03:00;;;;;;;7.88;3.97;;;;;;;;;;5030231;28;20021;-64
2021/05/15 09:05:26;;;;;;;3.40;2.45;;;;;;;;;;5031590;28;20071;-64
2021/05/15 09:07:53;;;;;;;4.50;3.05;;;;;;;;;;5030920;28;20100;-63
2021/05/15 09:10:19;;;;;;;3.88;2.63;;;;;;;;;;5040073;23;20037;-68
2021/05/15 09:12:45;;;;;;;5.70;3.25;;;;;;;;;;5012207;28;20092;-67
2021/05/15 09:15:11;;;;;;;5.82;2.83;;;;;;;;;;5011121;28;20106;-69
2021/05/15 09:17:46;;;;;;;4.05;2.40;;;;;;;;;;5009965;28;20010;-68
2021/05/15 09:20:21;;;;;;;7.97;3.25;;;;;;;;;;5018149;28;20076;-67
2021/05/15 09:22:46;;;;;;;4.50;2.42;;;;;;;;;;5007889;28;20022;-68
2021/05/15 09:25:12;;;;;;;5.83;2.87;;;;;;;;;;5009493;28;20032;-69
2021/05/15 09:27:37;;;;;;;7.53;2.15;;;;;;;;;;5007730;28;20347;-68
2021/05/15 09:30:03;;;;;;;2.15;1.50;;;;;;;;;;5004800;28;20391;-67
2021/05/15 09:32:32;;;;;;;2.72;1.83;;;;;;;;;;5008473;28;20030;-69
2021/05/15 09:34:58;;;;;;;2.47;1.55;;;;;;;;;;5006488;28;20109;-69
2021/05/15 09:37:43;;;;;;;4.35;2.08;;;;;;;;;;5008619;28;20443;-67
2021/05/15 09:40:18;;;;;;;7.13;2.60;;;;;;;;;;5003540;28;20108;-69
2021/05/15 09:42:44;;;;;;;5.40;2.03;;;;;;;;;;5006090;28;20040;-69
2021/05/15 09:45:17;;;;;;;4.97;1.95;;;;;;;;;;5007933;28;20049;-69
2021/05/15 09:48:34;;;;;;;5.35;2.53;;;;;;;;;;5005601;28;20026;-70
2021/05/15 09:50:56;;;;;;;8.50;2.10;;;;;;;;;;5001013;28;20072;-71
2021/05/15 09:53:22;;;;;;;8.52;2.50;;;;;;;;;;5008548;28;20033;-70
2021/05/15 09:55:52;;;;;;;10.13;2.72;;;;;;;;;;5006324;28;20022;-69
2021/05/15 09:58:17;;;;;;;2.38;1.30;;;;;;;;;;5009618;28;20083;-70
2021/05/15 10:00:44;;;;;;;5.93;1.80;;;;;;;;;;5004900;28;20025;-70
2021/05/15 10:03:19;;;;;;;4.20;2.10;;;;;;;;;;5008326;28;20277;-72
2021/05/15 10:05:44;;;;;;;2.63;1.80;;;;;;;;;;5008971;28;20013;-69
2021/05/15 10:08:09;;;;;;;1.52;1.00;;;;;;;;;;5007198;28;20029;-70
2021/05/15 10:10:35;;;;;;;2.55;1.25;;;;;;;;;;5008269;28;20514;-70
2021/05/15 10:13:00;;;;;;;7.78;1.63;;;;;;;;;;5008993;28;20099;-70
2021/05/15 10:15:26;;;;;;;2.35;1.15;;;;;;;;;;5006643;28;20021;-69
2021/05/15 10:17:51;;;;;;;2.20;1.20;;;;;;;;;;5007348;28;20029;-71
2021/05/15 10:20:16;;;;;;;6.53;1.45;;;;;;;;;;5007102;28;20029;-71
2021/05/15 10:22:43;;;;;;;6.53;2.38;;;;;;;;;;5008118;28;20589;-71
2021/05/15 10:25:09;;;;;;;7.00;3.65;;;;;;;;;;5004802;28;20022;-70
2021/05/15 10:27:36;;;;;;;4.22;2.35;;;;;;;;;;5007837;28;20093;-70
2021/05/15 10:30:10;;;;;;;5.82;2.95;;;;;;;;;;5004783;28;20029;-71
2021/05/15 10:32:50;;;;;;;3.95;1.98;;;;;;;;;;5003069;28;20515;-69
2021/05/15 10:35:25;;;;;;;2.97;1.90;;;;;;;;;;5008051;28;20386;-70
2021/05/15 10:38:00;;;;;;;4.97;1.67;;;;;;;;;;5008424;28;20045;-70
2021/05/15 10:40:27;;;;;;;7.15;3.35;;;;;;;;;;5005214;28;20137;-70
2021/05/15 10:42:59;;;;;;;6.15;2.70;;;;;;;;;;5006211;28;20417;-68
2021/05/15 10:45:35;;;;;;;6.82;2.97;;;;;;;;;;5002513;28;20026;-68
2021/05/15 10:48:10;;;;;;;8.25;4.40;;;;;;;;;;5006829;28;20026;-68
2021/05/15 10:50:47;;;;;;;11.50;4.45;;;;;;;;;;5003440;28;20152;-70
2021/05/15 10:53:17;;;;;;;8.02;4.30;;;;;;;;;;5006863;28;20072;-68
2021/05/15 10:55:42;;;;;;;;;;;;;;;;;;5008619;28;20030;-68
2021/05/15 10:58:12;;;;;;;7.40;4.07;;;;;;;;;;5011478;28;19920;-70
2021/05/15 11:00:37;;;;;;;7.40;2.58;;;;;;;;;;5007467;28;20036;-69
2021/05/15 11:03:02;;;;;;;4.13;2.80;;;;;;;;;;5007379;28;20022;-70
2021/05/15 11:05:40;;;;;;;5.68;2.10;;;;;;;;;;5007386;28;20049;-70
2021/05/15 11:08:05;;;;;;;5.20;2.70;;;;;;;;;;5006492;28;20351;-67
2021/05/15 11:10:34;;;;;;;3.78;1.98;;;;;;;;;;5005242;28;20029;-70
2021/05/15 11:13:05;;;;;;;3.55;2.10;;;;;;;;;;5008056;28;20490;-68
2021/05/15 11:15:30;;;;;;;1.95;1.20;;;;;;;;;;5002410;28;20025;-69
2021/05/15 11:18:04;;;;;;;3.45;1.15;;;;;;;;;;5005038;28;20095;-68
2021/05/15 11:20:42;;;;;;;7.63;1.85;;;;;;;;;;5007582;28;20117;-70
2021/05/15 11:23:11;;;;;;;1.73;1.00;;;;;;;;;;5008669;28;20022;-70
2021/05/15 11:25:38;;;;;;;2.88;1.55;;;;;;;;;;5004244;28;20010;-69
2021/05/15 11:28:05;;;;;;;3.92;1.17;;;;;;;;;;5003909;28;20541;-69
2021/05/15 11:30:32;;;;;;;2.20;1.30;;;;;;;;;;5007670;28;20114;-70
2021/05/15 11:32:57;;;;;;;1.20;0.88;;;;;;;;;;5009779;28;20026;-70
2021/05/15 11:35:22;;;;;;;1.60;0.90;;;;;;;;;;5008469;28;20025;-70
2021/05/15 11:37:48;;;;;;;2.92;1.23;;;;;;;;;;5009506;28;20034;-70
2021/05/15 11:40:13;;;;;;;1.92;0.95;;;;;;;;;;5008511;28;20026;-70
2021/05/15 11:42:39;;;;;;;7.45;2.03;;;;;;;;;;5009997;28;20022;-71
2021/05/15 11:45:04;;;;;;;1.80;1.17;;;;;;;;;;5010201;28;20018;-70
2021/05/15 11:47:30;;;;;;;2.15;1.10;;;;;;;;;;4992038;28;20053;-71
2021/05/15 11:49:56;;;;;;;5.43;1.17;;;;;;;;;;5010044;28;21214;-70
2021/05/15 11:52:28;;;;;;;1.88;1.27;;;;;;;;;;5009844;28;20068;-70
2021/05/15 11:54:53;;;;;;;1.48;1.25;;;;;;;;;;5010026;28;20366;-71
2021/05/15 11:57:24;;;;;;;2.30;1.10;;;;;;;;;;5009522;28;20026;-69
2021/05/15 11:59:49;;;;;;;3.28;1.20;;;;;;;;;;5009911;28;20272;-70
2021/05/15 12:02:14;;;;;;;1.33;0.65;;;;;;;;;;5010454;28;20429;-70
2021/05/15 12:04:41;;;;;;;2.83;0.90;;;;;;;;;;5013517;28;20033;-70
2021/05/15 12:07:07;;;;;;;1.67;1.00;;;;;;;;;;5012757;28;20028;-70
2021/05/15 12:09:32;;;;;;;2.05;1.00;;;;;;;;;;5013188;28;20076;-70
2021/05/15 12:12:02;;;;;;;2.45;1.38;;;;;;;;;;5013923;28;20025;-69
2021/05/15 12:14:28;;;;;;;1.13;0.80;;;;;;;;;;5011523;28;20105;-70
2021/05/15 12:16:53;;;;;;;1.05;0.70;;;;;;;;;;5012948;28;20030;-70
2021/05/15 12:19:28;;;;;;;3.70;0.60;;;;;;;;;;5006746;28;20029;-70
2021/05/15 12:22:04;;;;;;;1.33;0.70;;;;;;;;;;5012550;28;20018;-69
2021/05/15 12:24:36;;;;;;;2.30;0.50;;;;;;;;;;5009747;28;20072;-68
2021/05/15 12:27:12;;;;;;;1.60;0.80;;;;;;;;;;5012393;28;20141;-67
2021/05/15 12:29:38;;;;;;;1.90;0.82;;;;;;;;;;5010064;28;20038;-68
2021/05/15 12:32:04;;;;;;;4.95;0.75;;;;;;;;;;4994116;28;20026;-70
2021/05/15 12:34:29;;;;;;;2.65;0.73;;;;;;;;;;5014486;28;20220;-68
2021/05/15 12:36:54;;;;;;;1.45;0.75;;;;;;;;;;5009231;28;20394;-69
2021/05/15 12:39:19;;;;;;;1.17;0.70;;;;;;;;;;5012041;28;20105;-68
2021/05/15 12:41:45;;;;;;;4.97;0.38;;;;;;;;;;5011775;28;20264;-68
2021/05/15 12:44:11;;;;;;;2.75;0.40;;;;;;;;;;5014918;28;20013;-71
2021/05/15 12:46:37;;;;;;;2.60;0.85;;;;;;;;;;4998889;28;20493;-68
2021/05/15 12:49:06;;;;;;;2.20;1.00;;;;;;;;;;4981469;28;20097;-69
2021/05/15 12:51:33;;;;;;;1.92;0.70;;;;;;;;;;5005784;28;20029;-69
2021/05/15 12:53:58;;;;;;;0.60;0.47;;;;;;;;;;5011961;28;20080;-68
2021/05/15 12:56:35;;;;;;;2.85;0.75;;;;;;;;;;5010898;28;20034;-68
2021/05/15 12:59:00;;;;;;;3.22;0.80;;;;;;;;;;5010899;28;20041;-69
2021/05/15 13:01:26;;;;;;;1.70;0.70;;;;;;;;;;5012082;28;20063;-68
2021/05/15 13:03:52;;;;;;;5.00;1.03;;;;;;;;;;5011820;28;20279;-68
2021/05/15 13:06:19;;;;;;;2.60;0.80;;;;;;;;;;5010405;28;20308;-68
2021/05/15 13:09:11;;;;;;;4.80;0.60;;;;;;;;;;5010960;28;20088;-68
2021/05/15 13:11:38;;;;;;;1.02;0.52;;;;;;;;;;5003985;28;20116;-68
2021/05/15 13:14:04;;;;;;;4.22;1.10;;;;;;;;;;5010735;28;20025;-68
2021/05/15 13:16:29;;;;;;;2.22;1.27;;;;;;;;;;5011039;28;20018;-68
2021/05/15 13:19:01;;;;;;;3.33;1.05;;;;;;;;;;5009479;28;20022;-68
2021/05/15 13:21:26;;;;;;;4.00;0.85;;;;;;;;;;5011001;28;20352;-69
2021/05/15 13:23:52;;;;;;;9.43;1.42;;;;;;;;;;5007782;28;20025;-70
2021/05/15 13:26:17;;;;;;;7.75;1.55;;;;;;;;;;5008246;28;20021;-70
2021/05/15 13:28:42;;;;;;;2.67;0.90;;;;;;;;;;5010810;28;20022;-70
2021/05/15 13:31:08;;;;;;;7.75;2.50;;;;;;;;;;5004992;28;20348;-70
2021/05/15 13:33:33;;;;;;;5.18;1.50;;;;;;;;;;5009666;28;20026;-71
2021/05/15 13:35:58;;;;;;;5.95;2.05;;;;;;;;;;5007735;28;20014;-70
2021/05/15 13:38:24;;;;;;;6.30;0.75;;;;;;;;;;5009966;28;20502;-72
2021/05/15 13:40:49;;;;;;;9.32;1.23;;;;;;;;;;5010838;28;20497;-70
2021/05/15 13:43:14;;;;;;;2.60;1.17;;;;;;;;;;5010527;28;20345;-69
2021/05/15 13:45:39;;;;;;;7.87;1.03;;;;;;;;;;5011476;28;20626;-69
2021/05/15 13:48:05;;;;;;;1.98;1.20;;;;;;;;;;5011225;28;20276;-69
2021/05/15 13:50:30;;;;;;;3.78;1.52;;;;;;;;;;5011087;28;20021;-69
2021/05/15 13:52:56;;;;;;;3.88;1.33;;;;;;;;;;5010869;28;20025;-71
2021/05/15 13:55:21;;;;;;;3.72;2.00;;;;;;;;;;5021821;28;20026;-69
2021/05/15 13:57:46;;;;;;;2.75;1.23;;;;;;;;;;5012579;28;20509;-69
2021/05/15 14:00:12;;;;;;;3.53;1.17;;;;;;;;;;5011065;28;20500;-69
2021/05/15 14:02:39;;;;;;;3.08;1.10;;;;;;;;;;5008163;28;20042;-71
2021/05/15 14:05:05;;;;;;;6.80;1.45;;;;;;;;;;5006946;28;20069;-71
2021/05/15 14:07:30;;;;;;;3.83;1.70;;;;;;;;;;4992266;28;20037;-69
2021/05/15 14:09:56;;;;;;;2.13;1.38;;;;;;;;;;4995740;28;20054;-69
2021/05/15 14:12:21;;;;;;;3.60;1.88;;;;;;;;;;5010849;28;20394;-70
2021/05/15 14:14:46;;;;;;;4.40;1.10;;;;;;;;;;5010536;28;20022;-69
2021/05/15 14:17:11;;;;;;;6.53;2.03;;;;;;;;;;5010321;28;20021;-70
2021/05/15 14:19:36;;;;;;;5.13;1.00;;;;;;;;;;5009628;28;20661;-69
2021/05/15 14:22:02;;;;;;;1.93;1.23;;;;;;;;;;5010747;28;20018;-69
2021/05/15 14:24:27;;;;;;;1.83;0.70;;;;;;;;;;5010914;28;20698;-68
2021/05/15 14:26:52;;;;;;;1.98;0.70;;;;;;;;;;5010040;28;20029;-68
2021/05/15 14:29:17;;;;;;;2.90;1.35;;;;;;;;;;4992231;28;20026;-66
2021/05/15 14:31:42;;;;;;;1.30;0.95;;;;;;;;;;5010435;28;20053;-68
2021/05/15 14:34:08;;;;;;;3.87;0.70;;;;;;;;;;5009757;28;20061;-68
2021/05/15 14:36:33;;;;;;;5.65;1.13;;;;;;;;;;5010165;28;20273;-69
2021/05/15 14:38:58;;;;;;;2.45;1.05;;;;;;;;;;5010648;28;20030;-69